Time;durP1;ratioP1;P1;durP2;ratioP2;P2;SDS_P1;SDS_P2;PMS_P1;PMS_P2;Temp;Humidity;BMP_temperature;BMP_pressure;BME280_temperature;BME280_humidity;BME280_pressure;Samples;Min_cycle;Max_cycle;Signal;HPM_P1;HPM_P2
2022/07/25 00:02:31;;;;;;;;;1.40;1.40;35.80;99.90;;;;;;4808745;29;8940;-74
2022/07/25 00:05:03;;;;;;;;;1.00;1.00;35.80;99.90;;;;;;4791902;29;8884;-76
2022/07/25 00:07:33;;;;;;;;;1.00;1.00;35.60;99.90;;;;;;4804196;29;8932;-76
2022/07/25 00:10:05;;;;;;;;;1.00;1.00;35.60;99.90;;;;;;4793314;29;8881;-76
2022/07/25 00:12:36;;;;;;;;;0.80;0.80;35.70;99.90;;;;;;4806928;29;8885;-76
2022/07/25 00:15:06;;;;;;;;;1.00;1.00;35.60;99.90;;;;;;4793069;29;8877;-75
2022/07/25 00:17:54;;;;;;;;;1.00;1.00;35.70;99.90;;;;;;4803915;29;8893;-75
2022/07/25 00:20:35;;;;;;;;;0.00;0.00;35.50;99.90;;;;;;4803849;29;8885;-75
2022/07/25 00:23:07;;;;;;;;;0.80;0.80;35.30;99.90;;;;;;4790449;29;9636;-75
2022/07/25 00:25:42;;;;;;;;;0.80;0.80;35.40;99.90;;;;;;4786832;29;8897;-75
2022/07/25 00:28:15;;;;;;;;;2.80;0.80;35.40;99.90;;;;;;4790312;29;8891;-72
2022/07/25 00:30:47;;;;;;;;;1.00;0.00;35.30;99.90;;;;;;4789511;29;8837;-75
2022/07/25 00:33:22;;;;;;;;;1.80;1.80;35.30;99.90;;;;;;4785310;29;8889;-75
2022/07/25 00:35:53;;;;;;;;;0.40;0.00;35.10;99.90;;;;;;4788604;29;8858;-74
2022/07/25 00:38:24;;;;;;;;;1.80;0.80;35.00;99.90;;;;;;4804264;29;8857;-74
2022/07/25 00:40:57;;;;;;;;;1.60;1.60;35.00;99.90;;;;;;4783381;29;9011;-72
2022/07/25 00:43:31;;;;;;;;;1.00;1.00;35.00;99.90;;;;;;4787821;29;8902;-73
2022/07/25 00:46:03;;;;;;;;;1.60;1.00;35.00;99.90;;;;;;4806676;29;8915;-72
2022/07/25 00:48:38;;;;;;;;;1.00;1.00;34.90;99.90;;;;;;4803971;29;8893;-72
2022/07/25 00:51:13;;;;;;;;;2.00;2.00;34.90;99.90;;;;;;4788358;29;8889;-75
2022/07/25 00:53:45;;;;;;;;;1.20;1.20;34.90;99.90;;;;;;4806709;29;8837;-76
2022/07/25 00:56:16;;;;;;;;;1.00;1.00;34.80;99.90;;;;;;4774169;29;8891;-73
2022/07/25 00:58:47;;;;;;;;;0.40;0.40;34.80;99.90;;;;;;4800730;29;9034;-73
2022/07/25 01:01:17;;;;;;;;;0.00;0.00;34.70;99.90;;;;;;4805351;29;9479;-73
2022/07/25 01:03:47;;;;;;;;;0.00;0.00;34.60;99.90;;;;;;4800194;29;8855;-74
2022/07/25 01:06:18;;;;;;;;;0.00;0.00;34.40;99.90;;;;;;4788785;29;8866;-75
2022/07/25 01:08:53;;;;;;;;;1.20;1.00;34.50;99.90;;;;;;4799556;29;8829;-75
2022/07/25 01:11:25;;;;;;;;;1.80;1.00;34.50;99.90;;;;;;4788866;29;8868;-74
2022/07/25 01:13:55;;;;;;;;;1.00;1.00;34.50;99.90;;;;;;4804292;29;8916;-74
2022/07/25 01:16:26;;;;;;;;;0.80;0.80;34.40;99.90;;;;;;4791101;29;9411;-73
2022/07/25 01:19:01;;;;;;;;;1.00;1.00;34.30;99.90;;;;;;4791152;29;8905;-74
2022/07/25 01:21:31;;;;;;;;;0.80;0.80;34.20;99.90;;;;;;4805415;29;8900;-73
2022/07/25 01:24:06;;;;;;;;;0.40;0.40;34.20;99.90;;;;;;4786202;29;9607;-74
2022/07/25 01:26:38;;;;;;;;;1.00;1.00;34.10;99.90;;;;;;4807232;29;8906;-73
2022/07/25 01:29:10;;;;;;;;;1.00;1.00;34.00;99.90;;;;;;4801793;29;8877;-75
2022/07/25 01:31:40;;;;;;;;;1.40;1.40;33.90;99.90;;;;;;4793536;29;8969;-75
2022/07/25 01:34:12;;;;;;;;;0.40;0.00;33.80;99.90;;;;;;4788464;29;8849;-72
2022/07/25 01:36:47;;;;;;;;;0.60;0.60;33.80;99.90;;;;;;4806197;29;8877;-73
2022/07/25 01:39:18;;;;;;;;;0.00;0.00;33.80;99.90;;;;;;4791993;29;8900;-73
2022/07/25 01:41:48;;;;;;;;;0.80;0.80;33.80;99.90;;;;;;4805968;29;8888;-75
2022/07/25 01:44:20;;;;;;;;;1.00;1.00;33.80;99.90;;;;;;4789445;29;8865;-75
2022/07/25 01:46:56;;;;;;;;;0.40;0.40;33.70;99.90;;;;;;4790348;29;8869;-75
2022/07/25 01:49:32;;;;;;;;;0.80;0.40;33.70;99.90;;;;;;4790772;29;8896;-75
2022/07/25 01:52:06;;;;;;;;;0.80;0.80;33.60;99.90;;;;;;4790489;29;8877;-75
2022/07/25 01:54:37;;;;;;;;;2.00;1.00;33.60;99.90;;;;;;4803206;29;8984;-75
2022/07/25 01:57:08;;;;;;;;;1.00;1.00;33.60;99.90;;;;;;4791674;29;8873;-75
2022/07/25 01:59:42;;;;;;;;;1.00;1.00;33.40;99.90;;;;;;4801402;29;8877;-77
2022/07/25 02:02:13;;;;;;;;;0.00;0.00;33.40;99.90;;;;;;4773451;29;8885;-75
2022/07/25 02:04:44;;;;;;;;;2.00;1.00;33.40;99.90;;;;;;4790807;29;8868;-76
2022/07/25 02:07:14;;;;;;;;;0.00;0.00;33.30;99.90;;;;;;4789139;29;8881;-74
2022/07/25 02:09:48;;;;;;;;;0.40;0.40;33.20;99.90;;;;;;4786214;29;8878;-75
2022/07/25 02:12:24;;;;;;;;;1.00;1.00;33.20;99.90;;;;;;4787879;29;9778;-77
2022/07/25 02:14:55;;;;;;;;;0.40;0.40;33.20;99.90;;;;;;4784217;29;8864;-75
2022/07/25 02:17:26;;;;;;;;;0.80;0.80;33.10;99.90;;;;;;4789847;29;8885;-75
2022/07/25 02:19:57;;;;;;;;;0.40;0.40;33.10;99.90;;;;;;4787398;29;8841;-74
2022/07/25 02:22:27;;;;;;;;;0.40;0.00;33.00;99.90;;;;;;4789475;29;8918;-74
2022/07/25 02:24:58;;;;;;;;;0.00;0.00;33.00;99.90;;;;;;4806196;29;8865;-74
2022/07/25 02:27:28;;;;;;;;;1.00;1.00;32.90;99.90;;;;;;4791235;29;8897;-75
2022/07/25 02:30:00;;;;;;;;;1.00;1.00;33.00;99.90;;;;;;4792874;29;8900;-74
2022/07/25 02:32:32;;;;;;;;;1.60;0.80;33.00;99.90;;;;;;4807059;29;8889;-75
2022/07/25 02:35:05;;;;;;;;;1.40;0.40;33.00;99.90;;;;;;4806813;29;8912;-75
2022/07/25 02:37:41;;;;;;;;;0.60;0.60;32.90;99.90;;;;;;4804584;29;9533;-75
2022/07/25 02:40:14;;;;;;;;;1.40;1.40;32.80;99.90;;;;;;4807983;29;8873;-74
2022/07/25 02:42:45;;;;;;;;;0.40;0.40;32.80;99.90;;;;;;4776909;29;8893;-74
2022/07/25 02:45:15;;;;;;;;;1.80;1.00;32.70;99.90;;;;;;4790577;29;8837;-75
2022/07/25 02:47:46;;;;;;;;;2.80;0.60;32.70;99.90;;;;;;4794994;29;8881;-75
2022/07/25 02:50:18;;;;;;;;;1.40;0.60;32.60;99.90;;;;;;4791837;29;8870;-76
2022/07/25 02:52:49;;;;;;;;;2.20;1.00;32.60;99.90;;;;;;4794731;29;8871;-74
2022/07/25 02:55:19;;;;;;;;;1.00;1.00;32.50;99.90;;;;;;4795498;29;8877;-78
2022/07/25 02:57:50;;;;;;;;;1.00;1.00;32.50;99.90;;;;;;4792370;29;8869;-76
2022/07/25 03:00:19;;;;;;;;;1.00;1.00;32.40;99.90;;;;;;4795048;29;8861;-74
2022/07/25 03:02:50;;;;;;;;;1.20;1.20;32.30;99.90;;;;;;4793201;29;8931;-75
2022/07/25 03:05:20;;;;;;;;;1.00;1.00;32.30;99.90;;;;;;4791065;29;8862;-74
2022/07/25 03:07:52;;;;;;;;;2.00;1.60;32.30;99.90;;;;;;4809785;29;8889;-74
2022/07/25 03:10:24;;;;;;;;;1.00;1.00;32.20;99.90;;;;;;4776325;29;8877;-73
2022/07/25 03:12:56;;;;;;;;;1.60;1.00;32.10;99.90;;;;;;4805311;29;8892;-73
2022/07/25 03:15:26;;;;;;;;;1.20;1.20;32.00;99.90;;;;;;4792974;29;8871;-74
2022/07/25 03:18:01;;;;;;;;;1.80;1.00;32.00;99.90;;;;;;4804532;29;8889;-75
2022/07/25 03:20:33;;;;;;;;;0.20;0.20;31.90;99.90;;;;;;4796975;29;9291;-74
2022/07/25 03:23:03;;;;;;;;;1.00;1.00;31.90;99.90;;;;;;4795092;29;9596;-74
2022/07/25 03:25:34;;;;;;;;;1.00;1.00;31.80;99.90;;;;;;4793516;29;8873;-74
2022/07/25 03:28:04;;;;;;;;;1.60;1.00;31.80;99.90;;;;;;4804508;29;8868;-74
2022/07/25 03:30:34;;;;;;;;;1.60;1.60;31.80;99.90;;;;;;4791666;29;8924;-74
2022/07/25 03:33:05;;;;;;;;;1.80;1.80;31.70;99.90;;;;;;4796380;29;8884;-73
2022/07/25 03:35:37;;;;;;;;;1.00;1.00;31.60;99.90;;;;;;4796845;29;9565;-74
2022/07/25 03:38:09;;;;;;;;;1.00;1.00;31.60;99.90;;;;;;4815314;29;8874;-75
2022/07/25 03:40:39;;;;;;;;;1.00;1.00;31.50;99.90;;;;;;4796372;29;8896;-74
2022/07/25 03:43:10;;;;;;;;;1.40;1.40;31.40;99.90;;;;;;4795592;29;8875;-73
2022/07/25 03:45:45;;;;;;;;;1.00;1.00;31.40;99.90;;;;;;4793420;29;8856;-76
2022/07/25 03:48:17;;;;;;;;;0.80;0.00;31.40;99.90;;;;;;4809082;29;8923;-74
2022/07/25 03:50:46;;;;;;;;;2.00;1.00;31.40;99.90;;;;;;4797568;29;8869;-73
2022/07/25 03:53:19;;;;;;;;;1.00;1.00;31.40;99.90;;;;;;4792700;29;8904;-74
2022/07/25 03:55:50;;;;;;;;;1.80;1.80;31.30;99.90;;;;;;4787945;29;8897;-75
2022/07/25 03:58:21;;;;;;;;;2.00;2.00;31.10;99.90;;;;;;4779375;29;8889;-75
2022/07/25 04:00:52;;;;;;;;;2.00;1.00;31.10;99.90;;;;;;4805880;29;8859;-74
2022/07/25 04:03:30;;;;;;;;;2.00;2.00;31.00;99.90;;;;;;4790775;29;8912;-74
2022/07/25 04:06:07;;;;;;;;;2.60;1.40;31.00;99.90;;;;;;4781468;29;9012;-77
2022/07/25 04:08:39;;;;;;;;;2.60;1.60;31.00;99.90;;;;;;4791289;29;8873;-74
2022/07/25 04:11:12;;;;;;;;;2.20;2.00;30.90;99.90;;;;;;4796441;29;8880;-74
2022/07/25 04:13:44;;;;;;;;;2.00;1.00;30.90;99.90;;;;;;4795889;29;8864;-73
2022/07/25 04:16:16;;;;;;;;;1.80;1.00;30.80;99.90;;;;;;4804972;29;8901;-72
2022/07/25 04:18:52;;;;;;;;;1.00;1.00;30.80;99.90;;;;;;4809388;29;9215;-73
2022/07/25 04:21:28;;;;;;;;;3.20;1.00;30.80;99.90;;;;;;4799301;29;8901;-73
2022/07/25 04:23:59;;;;;;;;;1.00;1.00;30.60;99.90;;;;;;4789640;29;8921;-73
2022/07/25 04:26:29;;;;;;;;;2.00;1.00;30.60;99.90;;;;;;4778322;29;8931;-72
2022/07/25 04:29:02;;;;;;;;;2.00;1.60;30.60;99.90;;;;;;4773151;29;8892;-73
2022/07/25 04:31:35;;;;;;;;;3.40;1.00;30.50;99.90;;;;;;4777784;29;8888;-73
2022/07/25 04:34:08;;;;;;;;;0.60;0.60;30.50;99.90;;;;;;4775498;29;8875;-72
2022/07/25 04:36:37;;;;;;;;;2.60;1.00;30.50;99.90;;;;;;4773283;29;8907;-72
2022/07/25 04:39:12;;;;;;;;;1.00;1.00;30.30;99.90;;;;;;4775756;29;8888;-72
2022/07/25 04:41:47;;;;;;;;;1.00;1.00;30.30;99.90;;;;;;4792390;29;8912;-72
2022/07/25 04:44:19;;;;;;;;;1.20;1.20;30.20;99.90;;;;;;4773895;29;9046;-73
2022/07/25 04:46:49;;;;;;;;;1.00;1.00;30.20;99.90;;;;;;4773357;29;9685;-71
2022/07/25 04:49:18;;;;;;;;;0.60;0.60;30.20;99.90;;;;;;4758323;29;8868;-73
2022/07/25 04:51:49;;;;;;;;;2.00;1.00;30.20;99.90;;;;;;4787008;29;8852;-73
2022/07/25 04:54:20;;;;;;;;;1.00;1.00;30.20;99.90;;;;;;4773888;29;8914;-73
2022/07/25 04:56:50;;;;;;;;;0.60;0.60;30.10;99.90;;;;;;4784729;29;8888;-73
2022/07/25 04:59:22;;;;;;;;;2.00;1.00;30.00;99.90;;;;;;4775210;29;8839;-74
2022/07/25 05:01:55;;;;;;;;;2.40;1.60;30.00;99.90;;;;;;4777834;29;8886;-74
2022/07/25 05:04:31;;;;;;;;;2.40;1.00;29.90;99.90;;;;;;4774248;29;8871;-75
2022/07/25 05:07:02;;;;;;;;;1.40;1.40;29.80;99.90;;;;;;4771979;29;10060;-75
2022/07/25 05:09:36;;;;;;;;;2.00;1.80;29.80;99.90;;;;;;4776780;29;8890;-74
2022/07/25 05:12:05;;;;;;;;;1.00;1.00;29.70;99.90;;;;;;4790076;29;8867;-75
2022/07/25 05:14:40;;;;;;;;;2.00;1.60;29.50;99.90;;;;;;4776147;29;8878;-74
2022/07/25 05:17:09;;;;;;;;;1.00;1.00;29.50;99.90;;;;;;4791986;29;8841;-74
2022/07/25 05:19:40;;;;;;;;;1.00;1.00;29.40;99.90;;;;;;4773424;29;8890;-74
2022/07/25 05:22:11;;;;;;;;;1.00;1.00;29.40;99.90;;;;;;4774331;29;8903;-74
2022/07/25 05:24:49;;;;;;;;;1.40;1.40;29.40;99.90;;;;;;4774727;29;8885;-73
2022/07/25 05:27:19;;;;;;;;;1.60;1.60;29.40;99.90;;;;;;4791726;29;8883;-74
2022/07/25 05:29:55;;;;;;;;;2.00;2.00;29.40;99.90;;;;;;4763237;29;8882;-79
2022/07/25 05:32:28;;;;;;;;;1.00;1.00;29.10;99.90;;;;;;4791026;29;8882;-74
2022/07/25 05:35:01;;;;;;;;;2.00;1.00;29.10;99.90;;;;;;4771963;29;8844;-74
2022/07/25 05:37:35;;;;;;;;;1.60;1.60;29.30;99.90;;;;;;4777361;29;10060;-74
2022/07/25 05:40:12;;;;;;;;;1.40;1.40;29.10;99.90;;;;;;4783676;29;8893;-74
2022/07/25 05:42:44;;;;;;;;;1.80;1.80;29.10;99.90;;;;;;4789936;29;8913;-74
2022/07/25 05:45:14;;;;;;;;;1.60;1.00;29.00;99.90;;;;;;4790360;29;8930;-75
2022/07/25 05:47:50;;;;;;;;;1.00;1.00;29.00;99.90;;;;;;4776838;29;8867;-74
2022/07/25 05:50:24;;;;;;;;;1.20;1.20;29.00;99.90;;;;;;4777980;29;8902;-75
2022/07/25 05:53:00;;;;;;;;;0.60;0.60;28.90;99.90;;;;;;4778662;29;8890;-74
2022/07/25 05:55:33;;;;;;;;;1.60;1.60;28.80;99.90;;;;;;4771802;29;8888;-74
2022/07/25 05:58:11;;;;;;;;;3.40;2.00;28.90;99.90;;;;;;4771720;29;8872;-75
2022/07/25 06:00:41;;;;;;;;;1.60;1.60;28.80;99.90;;;;;;4788099;29;8922;-74
2022/07/25 06:03:12;;;;;;;;;4.20;2.40;28.60;99.90;;;;;;4777843;29;8876;-74
2022/07/25 06:05:41;;;;;;;;;1.00;1.00;28.80;99.90;;;;;;4776355;29;8923;-74
2022/07/25 06:08:18;;;;;;;;;1.00;1.00;28.90;99.90;;;;;;4777838;29;9782;-74
2022/07/25 06:10:53;;;;;;;;;1.00;1.00;28.70;99.90;;;;;;4793592;29;8860;-74
2022/07/25 06:13:26;;;;;;;;;2.00;2.00;28.60;99.90;;;;;;4782097;29;8856;-75
2022/07/25 06:15:57;;;;;;;;;1.40;1.00;28.50;99.90;;;;;;4791461;29;8859;-74
2022/07/25 06:18:31;;;;;;;;;1.60;1.60;28.40;99.90;;;;;;4776081;29;8860;-74
2022/07/25 06:21:05;;;;;;;;;2.00;2.00;28.50;99.90;;;;;;4778223;29;8918;-75
2022/07/25 06:23:36;;;;;;;;;2.00;2.00;28.40;99.90;;;;;;4778122;29;8919;-74
2022/07/25 06:26:10;;;;;;;;;1.00;1.00;28.50;99.90;;;;;;4778099;29;8905;-75
2022/07/25 06:28:43;;;;;;;;;1.00;1.00;28.30;99.90;;;;;;4781990;29;8856;-74
2022/07/25 06:31:14;;;;;;;;;1.40;1.40;28.30;99.90;;;;;;4791956;29;9638;-75
2022/07/25 06:33:46;;;;;;;;;1.00;1.00;28.30;99.90;;;;;;4776378;29;8848;-74
2022/07/25 06:36:16;;;;;;;;;2.20;2.20;28.30;99.90;;;;;;4792906;29;8872;-75
2022/07/25 06:38:48;;;;;;;;;1.00;1.00;28.20;99.90;;;;;;4779398;29;9393;-74
2022/07/25 06:41:23;;;;;;;;;1.80;1.80;28.20;99.90;;;;;;4775660;29;9029;-75
2022/07/25 06:43:53;;;;;;;;;2.00;2.00;28.20;99.90;;;;;;4776902;29;8922;-74
2022/07/25 06:46:25;;;;;;;;;2.00;2.00;28.10;99.90;;;;;;4792223;29;8896;-74
2022/07/25 06:48:55;;;;;;;;;0.00;0.00;28.00;99.90;;;;;;4777263;29;8867;-75
2022/07/25 06:51:27;;;;;;;;;1.60;1.60;28.00;99.90;;;;;;4775789;29;8943;-75
2022/07/25 06:53:59;;;;;;;;;2.40;2.40;27.90;99.90;;;;;;4790641;29;8888;-75
2022/07/25 06:56:33;;;;;;;;;2.60;2.00;27.90;99.90;;;;;;4788639;29;9869;-74
2022/07/25 06:59:03;;;;;;;;;2.40;2.40;27.80;99.90;;;;;;4777320;29;8874;-75
2022/07/25 07:01:36;;;;;;;;;2.20;2.20;27.80;99.90;;;;;;4776415;29;8862;-75
2022/07/25 07:04:07;;;;;;;;;1.00;1.00;27.80;99.90;;;;;;4778048;29;8881;-74
2022/07/25 07:06:42;;;;;;;;;1.20;1.20;27.80;99.90;;;;;;4788354;29;8875;-74
2022/07/25 07:09:13;;;;;;;;;1.00;1.00;27.80;99.90;;;;;;4794544;29;8883;-75
2022/07/25 07:11:44;;;;;;;;;1.00;1.00;27.80;99.90;;;;;;4786276;29;8971;-74
2022/07/25 07:14:15;;;;;;;;;1.60;1.60;27.90;99.90;;;;;;4773146;29;8891;-74
2022/07/25 07:16:46;;;;;;;;;2.80;2.80;27.80;99.90;;;;;;4770981;29;8883;-74
2022/07/25 07:19:17;;;;;;;;;1.60;1.60;27.70;99.90;;;;;;4775888;29;8868;-74
2022/07/25 07:21:50;;;;;;;;;2.00;2.00;27.50;99.90;;;;;;4773412;29;8890;-74
2022/07/25 07:24:21;;;;;;;;;1.00;1.00;27.50;99.90;;;;;;4776567;29;10050;-75
2022/07/25 07:26:54;;;;;;;;;3.00;3.00;27.40;99.90;;;;;;4773215;29;9508;-74
2022/07/25 07:29:28;;;;;;;;;1.40;1.00;27.40;99.90;;;;;;4778366;29;8931;-74
2022/07/25 07:32:00;;;;;;;;;1.20;1.20;27.50;99.90;;;;;;4786154;29;8860;-75
2022/07/25 07:34:29;;;;;;;;;3.00;3.00;27.50;99.90;;;;;;4788803;29;8908;-74
2022/07/25 07:37:02;;;;;;;;;2.00;2.00;27.40;99.90;;;;;;4790415;29;8868;-73
2022/07/25 07:39:32;;;;;;;;;1.00;1.00;27.40;99.90;;;;;;4795088;29;8871;-73
2022/07/25 07:42:02;;;;;;;;;2.60;2.60;27.40;99.90;;;;;;4793928;29;8902;-73
2022/07/25 07:44:32;;;;;;;;;2.60;2.00;27.50;99.90;;;;;;4779883;29;8874;-73
2022/07/25 07:47:03;;;;;;;;;2.00;2.00;27.30;99.90;;;;;;4800648;29;8859;-73
2022/07/25 07:49:43;;;;;;;;;1.00;1.00;27.40;99.90;;;;;;4785886;29;8869;-73
2022/07/25 07:52:21;;;;;;;;;2.00;2.00;27.30;99.90;;;;;;4800225;29;8886;-73
2022/07/25 07:57:42;;;;;;;;;1.80;1.80;27.20;99.90;;;;;;4793156;29;8896;-74
2022/07/25 08:00:15;;;;;;;;;1.40;1.40;27.20;99.90;;;;;;4790442;29;9599;-75
2022/07/25 08:02:53;;;;;;;;;2.40;2.40;27.20;99.90;;;;;;4788768;29;8826;-74
2022/07/25 08:05:30;;;;;;;;;2.80;1.00;27.10;99.90;;;;;;4791027;29;8959;-74
2022/07/25 08:08:01;;;;;;;;;4.00;2.40;27.20;99.90;;;;;;4772637;29;9591;-74
2022/07/25 08:10:35;;;;;;;;;2.20;2.20;27.20;99.90;;;;;;4788507;29;9034;-74
2022/07/25 08:13:18;;;;;;;;;2.00;2.00;27.10;99.90;;;;;;4789035;29;8929;-74
2022/07/25 08:15:51;;;;;;;;;1.80;1.80;27.00;99.90;;;;;;4788137;29;9028;-74
2022/07/25 08:18:23;;;;;;;;;1.80;1.80;27.00;99.90;;;;;;4774005;29;8832;-75
2022/07/25 08:20:56;;;;;;;;;1.80;1.80;27.00;99.90;;;;;;4775993;29;9684;-74
2022/07/25 08:23:30;;;;;;;;;2.40;2.40;26.90;99.90;;;;;;4772800;29;8876;-75
2022/07/25 08:26:02;;;;;;;;;4.00;2.20;27.00;99.90;;;;;;4790087;29;8881;-75
2022/07/25 08:28:39;;;;;;;;;2.60;2.60;27.10;99.90;;;;;;4785797;29;8902;-74
2022/07/25 08:31:09;;;;;;;;;2.00;2.00;27.00;99.90;;;;;;4788976;29;8882;-75
2022/07/25 08:33:40;;;;;;;;;2.20;1.00;26.90;99.90;;;;;;4775766;29;9559;-74
2022/07/25 08:36:13;;;;;;;;;1.00;1.00;26.80;99.90;;;;;;4776345;29;8882;-74
2022/07/25 08:38:48;;;;;;;;;1.80;1.80;26.90;99.90;;;;;;4791834;29;9634;-74
2022/07/25 08:41:18;;;;;;;;;2.00;2.00;26.90;99.90;;;;;;4781449;29;8894;-74
2022/07/25 08:43:53;;;;;;;;;2.00;2.00;26.80;99.90;;;;;;4786862;29;8874;-74
2022/07/25 08:46:23;;;;;;;;;3.20;2.60;26.80;99.90;;;;;;4776568;29;8915;-74
2022/07/25 08:48:58;;;;;;;;;2.00;2.00;26.70;99.90;;;;;;4777811;29;8875;-73
2022/07/25 08:51:28;;;;;;;;;1.80;1.80;26.80;99.90;;;;;;4776160;29;8902;-73
2022/07/25 08:54:01;;;;;;;;;1.80;1.80;26.70;99.90;;;;;;4780252;29;8862;-74
2022/07/25 08:56:34;;;;;;;;;2.00;2.00;26.70;99.90;;;;;;4787695;29;8876;-74
2022/07/25 08:59:08;;;;;;;;;2.00;1.00;26.70;99.90;;;;;;4773874;29;8891;-74
2022/07/25 09:01:40;;;;;;;;;2.00;2.00;26.70;99.90;;;;;;4773723;29;8899;-74
2022/07/25 09:04:10;;;;;;;;;1.40;1.00;26.70;99.90;;;;;;4773113;29;9021;-75
2022/07/25 09:07:03;;;;;;;;;3.20;3.20;26.60;99.90;;;;;;4774605;29;8874;-73
2022/07/25 09:09:37;;;;;;;;;2.00;2.00;26.70;99.90;;;;;;4785859;29;8891;-74
2022/07/25 09:12:08;;;;;;;;;2.00;2.00;26.50;99.90;;;;;;4791611;29;8964;-74
2022/07/25 09:14:46;;;;;;;;;2.00;2.00;26.50;99.90;;;;;;4774751;29;8872;-75
2022/07/25 09:17:16;;;;;;;;;2.00;2.00;26.50;99.90;;;;;;4777631;29;9601;-75
2022/07/25 09:19:58;;;;;;;;;2.00;2.00;26.50;99.90;;;;;;4778454;29;8852;-74
2022/07/25 09:22:31;;;;;;;;;1.60;1.60;26.60;99.90;;;;;;4777523;29;8872;-74
2022/07/25 09:25:06;;;;;;;;;2.00;2.00;26.50;99.90;;;;;;4774208;29;8893;-74
2022/07/25 09:27:40;;;;;;;;;2.00;2.00;26.40;99.90;;;;;;4753598;29;8866;-74
2022/07/25 09:30:16;;;;;;;;;3.80;2.00;26.40;99.90;;;;;;4771826;29;9336;-74
2022/07/25 09:33:00;;;;;;;;;1.20;1.20;26.40;99.90;;;;;;4772268;29;8880;-74
2022/07/25 09:35:32;;;;;;;;;1.60;1.60;26.40;99.90;;;;;;4774027;29;8895;-75
2022/07/25 09:38:14;;;;;;;;;3.00;3.00;26.30;99.90;;;;;;4777485;29;8864;-75
2022/07/25 09:41:01;;;;;;;;;3.20;3.20;26.30;99.90;;;;;;4767105;29;8865;-75
2022/07/25 09:43:39;;;;;;;;;3.60;2.00;26.30;99.90;;;;;;4776757;29;8848;-75
2022/07/25 09:46:11;;;;;;;;;2.80;2.80;26.40;99.90;;;;;;4779216;29;8882;-74
2022/07/25 09:48:45;;;;;;;;;2.00;2.00;26.40;99.90;;;;;;4775768;29;8899;-74
2022/07/25 09:51:18;;;;;;;;;2.20;2.20;26.40;99.90;;;;;;4778842;29;8864;-75
2022/07/25 09:53:49;;;;;;;;;2.00;2.00;26.40;99.90;;;;;;4775569;29;8888;-74
2022/07/25 09:56:22;;;;;;;;;2.80;2.00;26.30;99.90;;;;;;4777529;29;8876;-74
2022/07/25 09:58:52;;;;;;;;;2.00;2.00;26.30;99.90;;;;;;4764228;29;8876;-74
2022/07/25 10:01:28;;;;;;;;;2.80;2.80;26.20;99.90;;;;;;4762249;30;9566;-74
2022/07/25 10:04:20;;;;;;;;;1.00;1.00;26.20;99.90;;;;;;4776678;29;8935;-73
2022/07/25 10:07:08;;;;;;;;;3.50;2.75;26.30;99.90;;;;;;4776551;29;8879;-73
2022/07/25 10:09:47;;;;;;;;;2.80;2.80;26.20;99.90;;;;;;4776359;29;8922;-74
2022/07/25 10:12:23;;;;;;;;;2.60;2.40;26.20;99.90;;;;;;4770307;29;9642;-74
2022/07/25 10:15:07;;;;;;;;;3.25;3.25;26.20;99.90;;;;;;4762039;30;8894;-74
2022/07/25 10:17:41;;;;;;;;;2.60;2.60;26.20;99.90;;;;;;4759425;29;8848;-75
2022/07/25 10:20:13;;;;;;;;;3.40;2.20;26.20;99.90;;;;;;4761436;29;8876;-75
2022/07/25 10:22:46;;;;;;;;;4.00;4.00;26.20;99.90;;;;;;4776938;29;8890;-75
2022/07/25 10:25:28;;;;;;;;;4.00;2.60;26.10;99.90;;;;;;4780035;29;8918;-75
2022/07/25 10:28:08;;;;;;;;;3.00;3.00;26.10;99.90;;;;;;4779305;29;8898;-74
2022/07/25 10:30:40;;;;;;;;;3.50;3.50;26.10;99.90;;;;;;4778777;29;8892;-75
2022/07/25 10:33:18;;;;;;;;;2.00;2.00;26.10;99.90;;;;;;4796266;29;8926;-75
2022/07/25 10:35:48;;;;;;;;;3.00;3.00;26.10;99.90;;;;;;4792669;29;8939;-74
2022/07/25 10:38:31;;;;;;;;;2.00;2.00;26.20;99.90;;;;;;4798397;29;8896;-75
2022/07/25 10:41:14;;;;;;;;;4.00;3.00;26.00;99.90;;;;;;4789078;29;9038;-74
2022/07/25 10:43:46;;;;;;;;;4.50;3.00;25.90;99.90;;;;;;4781236;29;8880;-75
2022/07/25 10:46:22;;;;;;;;;2.50;2.50;25.80;99.90;;;;;;4781489;29;8900;-74
2022/07/25 10:49:08;;;;;;;;;0.25;0.25;25.80;99.90;;;;;;4774654;29;8884;-75
2022/07/25 10:51:40;;;;;;;;;4.75;3.00;25.80;99.90;;;;;;4778630;29;8874;-74
2022/07/25 10:54:16;;;;;;;;;2.25;2.25;25.90;99.90;;;;;;4793519;29;8930;-75
2022/07/25 10:56:57;;;;;;;;;2.00;2.00;25.80;99.90;;;;;;4789453;29;10033;-74
2022/07/25 10:59:38;;;;;;;;;1.75;1.75;25.80;99.90;;;;;;4780451;29;8875;-75
2022/07/25 11:02:15;;;;;;;;;3.00;3.00;25.80;99.90;;;;;;4789009;29;8910;-75
2022/07/25 11:05:02;;;;;;;;;3.00;3.00;25.80;99.90;;;;;;4788917;29;8891;-76
2022/07/25 11:07:35;;;;;;;;;3.00;3.00;25.80;99.90;;;;;;4774484;29;8856;-76
2022/07/25 11:10:07;;;;;;;;;3.00;3.00;25.70;99.90;;;;;;4794645;29;8918;-74
2022/07/25 11:12:38;;;;;;;;;5.00;3.25;25.70;99.90;;;;;;4775013;29;8855;-74
2022/07/25 11:15:11;;;;;;;;;5.25;3.75;25.70;99.90;;;;;;4790052;29;8919;-75
2022/07/25 11:17:52;;;;;;;;;2.25;2.00;25.60;99.90;;;;;;4777342;29;8863;-74
2022/07/25 11:20:22;;;;;;;;;3.75;3.00;25.60;99.90;;;;;;4777844;29;8863;-74
2022/07/25 11:22:55;;;;;;;;;3.00;3.00;25.60;99.90;;;;;;4776495;29;8879;-75
2022/07/25 11:25:24;;;;;;;;;3.00;3.00;25.70;99.90;;;;;;4793242;29;8888;-75
2022/07/25 11:27:59;;;;;;;;;4.00;2.00;25.60;99.90;;;;;;4773004;29;8867;-75
2022/07/25 11:30:29;;;;;;;;;3.00;3.00;25.70;99.90;;;;;;4786819;29;8919;-74
2022/07/25 11:33:01;;;;;;;;;3.25;3.25;25.50;99.90;;;;;;4774450;29;8914;-74
2022/07/25 11:35:34;;;;;;;;;3.25;3.25;25.60;99.90;;;;;;4779216;29;10359;-74
2022/07/25 11:38:05;;;;;;;;;2.75;2.75;25.60;99.90;;;;;;4786504;29;8901;-74
2022/07/25 11:40:43;;;;;;;;;2.75;2.75;25.50;99.90;;;;;;4779157;29;8843;-74
2022/07/25 11:43:23;;;;;;;;;2.25;2.25;25.50;99.90;;;;;;4778623;29;8851;-73
2022/07/25 11:46:01;;;;;;;;;3.50;2.00;25.50;99.90;;;;;;4783075;29;8869;-74
2022/07/25 11:48:37;;;;;;;;;2.00;2.00;25.40;99.90;;;;;;4778759;29;8873;-74
2022/07/25 11:51:19;;;;;;;;;3.50;3.50;25.40;99.90;;;;;;4791032;29;8899;-74
2022/07/25 11:53:50;;;;;;;;;2.50;2.50;25.40;99.90;;;;;;4778619;29;8956;-73
2022/07/25 11:56:23;;;;;;;;;2.75;2.75;25.40;99.90;;;;;;4773537;29;8872;-74
2022/07/25 11:59:10;;;;;;;;;3.25;3.25;25.40;99.90;;;;;;4789649;29;8883;-74
2022/07/25 12:01:43;;;;;;;;;2.75;2.75;25.40;99.90;;;;;;4787982;29;8868;-74
2022/07/25 12:04:19;;;;;;;;;3.75;3.75;25.40;99.90;;;;;;4778695;29;8851;-75
2022/07/25 12:06:51;;;;;;;;;2.50;2.50;25.40;99.90;;;;;;4775864;29;8909;-76
2022/07/25 12:09:21;;;;;;;;;2.00;2.00;25.40;99.90;;;;;;4777328;29;8848;-76
2022/07/25 12:12:04;;;;;;;;;3.00;3.00;25.40;99.90;;;;;;4794802;29;8868;-76
2022/07/25 12:14:43;;;;;;;;;3.25;2.75;25.40;99.90;;;;;;4778347;29;8868;-74
2022/07/25 12:17:14;;;;;;;;;3.75;3.75;25.40;99.90;;;;;;4801420;29;8922;-73
2022/07/25 12:19:47;;;;;;;;;2.00;2.00;25.50;99.90;;;;;;4780826;29;8872;-73
2022/07/25 12:22:21;;;;;;;;;4.00;4.00;25.50;99.90;;;;;;4791127;29;8900;-73
2022/07/25 12:24:51;;;;;;;;;2.00;2.00;25.50;99.90;;;;;;4794724;29;9627;-74
2022/07/25 12:27:22;;;;;;;;;2.75;2.75;25.60;99.90;;;;;;4790767;29;8923;-75
2022/07/25 12:29:53;;;;;;;;;2.25;2.25;25.60;99.90;;;;;;4791836;29;8899;-74
2022/07/25 12:32:24;;;;;;;;;3.25;2.25;25.60;99.90;;;;;;4789417;29;9964;-73
2022/07/25 12:34:56;;;;;;;;;3.00;3.00;25.60;99.90;;;;;;4773699;29;8864;-74
2022/07/25 12:37:33;;;;;;;;;3.00;2.50;25.70;99.90;;;;;;4793916;29;8890;-74
2022/07/25 12:40:04;;;;;;;;;4.00;2.25;25.70;99.90;;;;;;4790365;29;8875;-74
2022/07/25 12:42:35;;;;;;;;;2.75;2.75;25.70;99.90;;;;;;4783524;29;8864;-73
2022/07/25 12:45:08;;;;;;;;;2.25;2.25;25.80;99.90;;;;;;4787758;29;8863;-74
2022/07/25 12:47:43;;;;;;;;;2.00;2.00;25.80;99.90;;;;;;4778180;29;8911;-73
2022/07/25 12:50:14;;;;;;;;;2.75;2.75;25.80;99.90;;;;;;4775430;29;8903;-74
2022/07/25 12:52:46;;;;;;;;;3.00;3.00;25.80;99.90;;;;;;4761869;29;8878;-74
2022/07/25 12:55:20;;;;;;;;;3.25;3.25;25.90;99.90;;;;;;4788134;29;8856;-73
2022/07/25 12:57:52;;;;;;;;;3.00;3.00;25.90;99.90;;;;;;4776451;29;8862;-73
2022/07/25 13:00:23;;;;;;;;;3.00;3.00;25.90;99.90;;;;;;4783875;29;8892;-74
2022/07/25 13:02:59;;;;;;;;;3.50;3.50;26.00;99.90;;;;;;4773412;29;9792;-73
2022/07/25 13:05:29;;;;;;;;;4.50;3.25;26.00;99.90;;;;;;4774485;29;8905;-73
2022/07/25 13:08:00;;;;;;;;;4.00;4.00;26.10;99.90;;;;;;4774123;29;9798;-74
2022/07/25 13:10:33;;;;;;;;;3.50;3.50;26.10;99.90;;;;;;4787948;29;8860;-74
2022/07/25 13:13:04;;;;;;;;;4.00;2.00;26.20;99.90;;;;;;4772326;29;8876;-74
2022/07/25 13:15:35;;;;;;;;;5.00;3.00;26.30;99.90;;;;;;4773431;29;8981;-74
2022/07/25 13:18:06;;;;;;;;;3.25;2.00;26.30;99.90;;;;;;4788296;29;8867;-74
2022/07/25 13:20:36;;;;;;;;;4.00;4.00;26.30;99.90;;;;;;4775829;29;8910;-74
2022/07/25 13:23:09;;;;;;;;;4.00;4.00;26.30;99.90;;;;;;4787647;29;8898;-74
2022/07/25 13:25:39;;;;;;;;;3.00;3.00;26.30;99.90;;;;;;4786371;29;8875;-74
2022/07/25 13:28:11;;;;;;;;;3.50;3.50;26.30;99.90;;;;;;4778005;29;8869;-74
2022/07/25 13:30:41;;;;;;;;;3.00;3.00;26.30;99.90;;;;;;4779199;29;8888;-74
2022/07/25 13:33:12;;;;;;;;;5.00;3.50;26.40;99.90;;;;;;4784644;29;8918;-74